Terminal Aerodrome Forecast
Issued by NWS

Home | Current Version | Previous Version | Text Only | Print | Product List | Glossary On
Versions: 1 2 3 4 5 6 7 8 9 10 11 12 13 14 15 16 17 18 19 20 21 22 23 24 25 26 27 28 29 30 31
109
FTUS45 KPSR 180811 AAA
TAFPHX
TAF AMD
KPHX 180811Z 1808/1912 09004KT P6SM BKN250
     FM182100 24012G18KT P6SM SCT070 BKN250
     FM190400 24015G22KT P6SM VCSH BKN060 BKN250=

USA.gov is the U.S. government's official web portal to all federal, state and local government web resources and services.